PARDEE (PAR)

Elevation: 568' · MOKELUMNE R basin · Operator: East Bay Municipal Utility District

Provisional data, subject to change.
Query executed Wednesday at 14:49:56   clock

Select a sensor type for a plot of data.
Note: Reservoir Flows are daily averages.

Earlier

Date RES ELE    STORAGE    RES CHG    OUTFLOW    INFLOW    PPT INC   
 FEET   AF   AF   CFS   CFS   INCHES  
04/28/2015 558.73 178743 -33 167 163 0.00
04/29/2015 558.70 178684 -59 166 149 0.00
04/30/2015 558.66 178584 -100 167 142 0.00
05/01/2015 558.62 178518 -66 153 134 0.00
05/02/2015 558.63 178522 4 134 132 0.00
05/03/2015 -- -- -- 122 117 0.00
05/04/2015 558.60 178460 -- 144 133 0.00
05/05/2015 558.54 178347 -113 152 126 0.00
05/06/2015 558.03 177291 -1056 723 373 0.00
05/07/2015 557.54 176260 -1031 715 104 0.36
05/08/2015 557.09 175328 -932 700 149 0.00
05/09/2015 557.14 175436 108 119 -121 0.00
05/10/2015 557.18 175527 91 119 159 0.00
05/11/2015 557.19 175547 20 142 162 0.00
05/12/2015 556.71 174547 -1000 673 378 0.00
05/13/2015 556.22 173547 -1000 676 71 0.00
05/14/2015 556.06 173219 -328 610 65 0.20
05/15/2015 556.56 174248 1029 110 199 0.00
05/16/2015 557.07 175295 1047 101 482 0.00
05/17/2015 557.50 176177 882 121 492 0.00
05/18/2015 558.05 177324 1147 148 515 0.00
05/19/2015 558.04 177307 -17 678 756 0.00
05/20/2015 558.03 177274 -33 666 418 0.00
05/21/2015 558.03 177291 17 670 427 0.00
05/22/2015 558.06 177336 45 658 432 0.00
05/23/2015 558.56 178393 1057 118 193 0.00
05/24/2015 559.07 179438 1045 115 494 0.00
05/25/2015 559.53 180408 970 131 492 0.00
05/26/2015 559.48 180295 -113 686 736 0.00
05/27/2015 -- -- -- -- -- --

Later | Latest

Warning! This data is preliminary and subject to revision.

Show PAR Map | Plot PAR Data | 1 Month PAR Data | Real-Time PAR Data | PAR Info